createdAt,value
2018-08-11T00:00:33.382Z,16.35
2018-08-11T00:01:33.372Z,16.38
2018-08-11T00:02:33.366Z,16.39
2018-08-11T00:03:33.356Z,16.34
2018-08-11T00:04:33.344Z,16.27
2018-08-11T00:05:33.338Z,16.24
2018-08-11T00:06:33.332Z,16.23
2018-08-11T00:07:33.317Z,16.15
2018-08-11T00:08:33.313Z,16.09
2018-08-11T00:09:33.300Z,16.09
2018-08-11T00:10:33.291Z,16.08
2018-08-11T00:11:33.288Z,16.12
2018-08-11T00:12:33.278Z,16.02
2018-08-11T00:13:33.265Z,16.09
2018-08-11T00:14:33.255Z,16.09
2018-08-11T00:15:33.244Z,16.08
2018-08-11T00:16:33.233Z,16.08
2018-08-11T00:17:33.225Z,16.11
2018-08-11T00:18:33.213Z,16.11
2018-08-11T00:19:33.212Z,16.07
2018-08-11T00:20:33.197Z,16.09
2018-08-11T00:21:33.189Z,16.09
2018-08-11T00:22:33.187Z,16.15
2018-08-11T00:23:33.170Z,16.11
2018-08-11T00:24:33.173Z,16.21
2018-08-11T00:25:33.152Z,16.11
2018-08-11T00:26:33.138Z,16.11
2018-08-11T00:27:33.135Z,16.09
2018-08-11T00:28:33.123Z,16.08
2018-08-11T00:29:33.117Z,16.08
2018-08-11T00:30:33.104Z,16.02
2018-08-11T00:31:33.098Z,16.12
2018-08-11T00:32:33.086Z,16.20
2018-08-11T00:33:33.084Z,16.09
2018-08-11T00:34:33.070Z,16.09
2018-08-11T00:35:33.056Z,16.14
2018-08-11T00:36:33.135Z,16.07
2018-08-11T00:37:33.052Z,16.17
2018-08-11T00:38:33.032Z,16.12
2018-08-11T00:39:33.025Z,16.14
2018-08-11T00:40:33.017Z,16.15
2018-08-11T00:41:33.003Z,16.17
2018-08-11T00:42:32.995Z,16.09
2018-08-11T00:43:32.992Z,16.21
2018-08-11T00:44:32.976Z,16.17
2018-08-11T00:45:32.964Z,16.17
2018-08-11T00:46:32.962Z,16.11
2018-08-11T00:47:32.953Z,16.20
2018-08-11T00:48:32.939Z,16.12
2018-08-11T00:49:32.975Z,16.09
2018-08-11T00:50:32.923Z,16.08
2018-08-11T00:51:32.914Z,16.11
2018-08-11T00:52:32.905Z,16.09
2018-08-11T00:53:32.900Z,16.09
2018-08-11T00:54:32.884Z,16.09
2018-08-11T00:55:32.883Z,16.08
2018-08-11T00:56:32.866Z,16.07
2018-08-11T00:57:32.856Z,16.11
2018-08-11T00:58:32.848Z,16.08
2018-08-11T00:59:32.837Z,16.09
2018-08-11T01:00:32.832Z,16.09
2018-08-11T01:01:32.822Z,16.12
2018-08-11T01:02:32.810Z,16.12
2018-08-11T01:03:32.803Z,16.12
2018-08-11T01:04:32.793Z,16.14
2018-08-11T01:05:32.787Z,16.21
2018-08-11T01:06:32.773Z,16.14
2018-08-11T01:07:32.769Z,16.12
2018-08-11T01:08:32.763Z,16.07
2018-08-11T01:09:32.741Z,16.08
2018-08-11T01:10:32.741Z,16.09
2018-08-11T01:11:32.724Z,16.12
2018-08-11T01:12:32.714Z,16.15
2018-08-11T01:13:32.711Z,16.15
2018-08-11T01:14:32.700Z,16.04
2018-08-11T01:15:32.710Z,16.11
2018-08-11T01:16:32.682Z,16.07
2018-08-11T01:17:32.674Z,16.12
2018-08-11T01:18:32.668Z,16.09
2018-08-11T01:19:32.657Z,16.11
2018-08-11T01:20:32.641Z,16.04
2018-08-11T01:21:32.637Z,16.07
2018-08-11T01:22:32.628Z,16.11
2018-08-11T01:23:32.621Z,16.05
2018-08-11T01:24:32.607Z,16.11
2018-08-11T01:25:32.593Z,16.11
2018-08-11T01:26:32.590Z,16.14
2018-08-11T01:27:32.576Z,16.08
2018-08-11T01:28:32.572Z,16.08
2018-08-11T01:29:32.560Z,16.09
2018-08-11T01:30:32.548Z,16.05
2018-08-11T01:31:32.546Z,16.11
2018-08-11T01:32:32.538Z,16.07
2018-08-11T01:33:32.524Z,16.09
2018-08-11T01:34:32.518Z,16.15
2018-08-11T01:35:32.505Z,16.11
2018-08-11T01:36:32.497Z,16.08
2018-08-11T01:37:32.491Z,16.09
2018-08-11T01:38:32.483Z,16.07
2018-08-11T01:39:32.471Z,16.09
2018-08-11T01:40:32.467Z,16.20
2018-08-11T01:41:32.449Z,16.17
2018-08-11T01:42:32.444Z,16.09
2018-08-11T01:43:32.442Z,16.08
2018-08-11T01:44:32.420Z,16.14
2018-08-11T01:45:32.416Z,16.07
2018-08-11T01:46:32.400Z,16.11
2018-08-11T01:47:32.396Z,16.12
2018-08-11T01:48:32.390Z,16.09
2018-08-11T01:49:32.380Z,16.09
2018-08-11T01:50:32.372Z,16.07
2018-08-11T01:51:32.363Z,16.11
2018-08-11T01:52:32.348Z,16.08
2018-08-11T01:53:32.341Z,16.02
2018-08-11T01:54:32.329Z,16.14
2018-08-11T01:55:32.325Z,16.09
2018-08-11T01:56:32.315Z,16.14
2018-08-11T01:57:32.299Z,16.09
2018-08-11T01:58:32.297Z,16.09
2018-08-11T01:59:32.285Z,16.14
2018-08-11T02:00:32.276Z,16.08
2018-08-11T02:01:32.269Z,16.04
2018-08-11T02:02:32.254Z,16.04
2018-08-11T02:03:32.249Z,16.01
2018-08-11T02:04:32.237Z,16.07
2018-08-11T02:05:32.231Z,16.07
2018-08-11T02:06:32.223Z,16.04
2018-08-11T02:07:32.206Z,16.02
2018-08-11T02:08:32.205Z,16.00
2018-08-11T02:09:32.194Z,16.02
2018-08-11T02:10:32.182Z,16.04
2018-08-11T02:11:32.174Z,16.02
2018-08-11T02:12:32.164Z,16.04
2018-08-11T02:13:32.155Z,16.02
2018-08-11T02:14:32.142Z,16.04
2018-08-11T02:15:32.137Z,16.01
2018-08-11T02:16:32.128Z,15.97
2018-08-11T02:17:32.117Z,16.01
2018-08-11T02:18:32.113Z,16.00
2018-08-11T02:19:32.097Z,15.97
2018-08-11T02:20:32.090Z,16.01
2018-08-11T02:21:32.088Z,16.02
2018-08-11T02:22:32.074Z,16.01
2018-08-11T02:23:32.084Z,15.94
2018-08-11T02:24:32.055Z,15.97
2018-08-11T02:25:32.048Z,15.96
2018-08-11T02:26:32.034Z,16.00
2018-08-11T02:27:32.028Z,16.00
2018-08-11T02:28:32.015Z,15.97
2018-08-11T02:29:32.009Z,15.97
2018-08-11T02:30:31.999Z,16.00
2018-08-11T02:31:31.988Z,15.97
2018-08-11T02:32:31.977Z,16.02
2018-08-11T02:33:31.967Z,16.02
2018-08-11T02:34:31.960Z,15.96
2018-08-11T02:35:31.949Z,16.00
2018-08-11T02:36:31.939Z,15.97
2018-08-11T02:37:31.931Z,16.05
2018-08-11T02:38:31.929Z,16.00
2018-08-11T02:39:31.914Z,15.96
2018-08-11T02:40:31.901Z,15.96
2018-08-11T02:41:31.894Z,15.76
2018-08-11T02:42:31.886Z,15.92
2018-08-11T02:43:31.880Z,15.89
2018-08-11T02:44:31.868Z,15.93
2018-08-11T02:45:31.853Z,15.87
2018-08-11T02:46:31.846Z,15.89
2018-08-11T02:47:31.843Z,15.93
2018-08-11T02:48:31.831Z,15.92
2018-08-11T02:49:31.817Z,15.92
2018-08-11T02:50:31.809Z,16.00
2018-08-11T02:51:31.803Z,15.89
2018-08-11T02:52:31.789Z,15.94
2018-08-11T02:53:31.786Z,15.89
2018-08-11T02:54:31.775Z,16.01
2018-08-11T02:55:31.767Z,15.90
2018-08-11T02:56:31.754Z,15.90
2018-08-11T02:57:31.738Z,16.01
2018-08-11T02:58:31.734Z,15.84
2018-08-11T02:59:31.733Z,16.01
2018-08-11T03:00:31.716Z,15.90
2018-08-11T03:01:31.708Z,15.80
2018-08-11T03:02:31.744Z,15.89
2018-08-11T03:03:31.687Z,15.89
2018-08-11T03:04:31.679Z,15.89
2018-08-11T03:05:31.673Z,15.89
2018-08-11T03:06:31.659Z,15.90
2018-08-11T03:07:31.650Z,15.86
2018-08-11T03:08:31.644Z,15.89
2018-08-11T03:09:31.638Z,15.86
2018-08-11T03:10:31.624Z,15.92
2018-08-11T03:11:31.616Z,15.93
2018-08-11T03:12:31.605Z,15.84
2018-08-11T03:13:31.597Z,15.86
2018-08-11T03:14:31.588Z,15.94
2018-08-11T03:15:31.571Z,15.96
2018-08-11T03:16:31.570Z,15.90
2018-08-11T03:17:31.563Z,16.00
2018-08-11T03:18:31.547Z,16.00
2018-08-11T03:19:31.542Z,15.92
2018-08-11T03:20:31.526Z,15.89
2018-08-11T03:21:31.518Z,15.92
2018-08-11T03:22:31.512Z,15.97
2018-08-11T03:23:31.502Z,15.96
2018-08-11T03:24:31.492Z,15.97
2018-08-11T03:25:31.480Z,15.96
2018-08-11T03:26:31.476Z,15.86
2018-08-11T03:27:31.463Z,15.90
2018-08-11T03:28:31.453Z,15.94
2018-08-11T03:29:31.451Z,15.94
2018-08-11T03:30:31.437Z,15.96
2018-08-11T03:31:31.425Z,15.93
2018-08-11T03:32:31.427Z,15.92
2018-08-11T03:33:31.408Z,15.86
2018-08-11T03:34:31.401Z,15.90
2018-08-11T03:35:31.388Z,15.83
2018-08-11T03:36:31.382Z,15.83
2018-08-11T03:37:31.372Z,15.86
2018-08-11T03:38:31.360Z,15.90
2018-08-11T03:39:31.354Z,15.92
2018-08-11T03:40:31.340Z,15.84
2018-08-11T03:41:31.332Z,15.87
2018-08-11T03:42:31.320Z,15.92
2018-08-11T03:43:31.316Z,15.93
2018-08-11T03:44:31.305Z,15.82
2018-08-11T03:45:31.295Z,15.96
2018-08-11T03:46:31.287Z,15.97
2018-08-11T03:47:31.279Z,16.01
2018-08-11T03:48:31.269Z,15.89
2018-08-11T03:49:31.258Z,15.93
2018-08-11T03:50:31.249Z,15.96
2018-08-11T03:51:31.246Z,15.89
2018-08-11T03:52:31.280Z,15.87
2018-08-11T03:53:31.220Z,15.96
2018-08-11T03:54:31.210Z,15.89
2018-08-11T03:55:31.204Z,15.94
2018-08-11T03:56:31.191Z,15.87
2018-08-11T03:57:31.188Z,15.94
2018-08-11T03:58:31.176Z,16.00
2018-08-11T03:59:31.167Z,15.96
2018-08-11T04:00:31.153Z,16.00
2018-08-11T04:01:31.145Z,15.97
2018-08-11T04:02:31.143Z,15.94
2018-08-11T04:03:31.129Z,16.00
2018-08-11T04:04:31.121Z,15.96
2018-08-11T04:05:31.108Z,15.90
2018-08-11T04:06:31.103Z,15.97
2018-08-11T04:07:31.095Z,15.93
2018-08-11T04:08:31.085Z,15.82
2018-08-11T04:09:31.072Z,15.83
2018-08-11T04:10:31.083Z,15.90
2018-08-11T04:11:31.054Z,15.89
2018-08-11T04:12:31.051Z,16.01
2018-08-11T04:13:31.036Z,15.94
2018-08-11T04:14:31.022Z,15.89
2018-08-11T04:15:31.015Z,15.82
2018-08-11T04:16:31.039Z,15.94
2018-08-11T04:17:30.995Z,15.86
2018-08-11T04:18:30.993Z,15.83
2018-08-11T04:19:30.985Z,15.72
2018-08-11T04:20:30.969Z,15.74
2018-08-11T04:21:30.958Z,15.69
2018-08-11T04:22:30.947Z,15.68
2018-08-11T04:23:30.942Z,15.60
2018-08-11T04:24:30.930Z,15.57
2018-08-11T04:25:30.920Z,15.57
2018-08-11T04:26:30.912Z,15.59
2018-08-11T04:27:30.904Z,15.53
2018-08-11T04:28:30.891Z,15.54
2018-08-11T04:29:30.879Z,15.56
2018-08-11T04:30:30.901Z,15.46
2018-08-11T04:31:30.864Z,15.50
2018-08-11T04:32:30.857Z,15.38
2018-08-11T04:33:30.842Z,15.39
2018-08-11T04:34:30.834Z,15.46
2018-08-11T04:35:30.831Z,15.38
2018-08-11T04:36:30.817Z,15.41
2018-08-11T04:37:30.807Z,15.54
2018-08-11T04:38:30.804Z,15.50
2018-08-11T04:39:30.792Z,15.50
2018-08-11T04:40:30.786Z,15.39
2018-08-11T04:41:30.767Z,15.35
2018-08-11T04:42:30.758Z,15.35
2018-08-11T04:43:30.755Z,15.32
2018-08-11T04:44:30.737Z,15.34
2018-08-11T04:45:30.733Z,15.32
2018-08-11T04:46:30.723Z,15.31
2018-08-11T04:47:30.707Z,15.34
2018-08-11T04:48:30.700Z,15.35
2018-08-11T04:49:30.694Z,15.32
2018-08-11T04:50:30.681Z,15.31
2018-08-11T04:51:30.670Z,15.23
2018-08-11T04:52:30.666Z,15.27
2018-08-11T04:53:30.654Z,15.23
2018-08-11T04:54:30.642Z,15.28
2018-08-11T04:55:30.636Z,15.21
2018-08-11T04:56:30.619Z,15.21
2018-08-11T04:57:30.621Z,15.11
2018-08-11T04:58:30.607Z,15.21
2018-08-11T04:59:30.597Z,15.19
2018-08-11T05:00:30.587Z,15.27
2018-08-11T05:01:30.575Z,15.21
2018-08-11T05:02:30.563Z,15.32
2018-08-11T05:03:30.562Z,15.32
2018-08-11T05:04:30.546Z,15.35
2018-08-11T05:05:30.540Z,15.35
2018-08-11T05:06:30.534Z,15.41
2018-08-11T05:07:30.520Z,15.43
2018-08-11T05:08:30.508Z,15.46
2018-08-11T05:09:30.506Z,15.43
2018-08-11T05:10:30.488Z,15.44
2018-08-11T05:11:30.481Z,15.44
2018-08-11T05:12:30.469Z,15.47
2018-08-11T05:13:30.465Z,15.46
2018-08-11T05:14:30.451Z,15.41
2018-08-11T05:15:30.442Z,15.46
2018-08-11T05:16:30.430Z,15.43
2018-08-11T05:17:30.427Z,15.41
2018-08-11T05:18:30.412Z,15.44
2018-08-11T05:19:30.414Z,15.36
2018-08-11T05:20:30.396Z,15.34
2018-08-11T05:21:30.385Z,15.34
2018-08-11T05:22:30.375Z,15.38
2018-08-11T05:23:30.365Z,15.32
2018-08-11T05:24:30.359Z,15.35
2018-08-11T05:25:30.343Z,15.28
2018-08-11T05:26:30.335Z,15.31
2018-08-11T05:27:30.322Z,15.28
2018-08-11T05:28:30.316Z,15.36
2018-08-11T05:29:30.310Z,15.35
2018-08-11T05:30:30.292Z,15.35
2018-08-11T05:31:30.286Z,15.35
2018-08-11T05:32:30.276Z,15.39
2018-08-11T05:33:30.260Z,15.34
2018-08-11T05:34:30.267Z,15.44
2018-08-11T05:35:30.252Z,15.39
2018-08-11T05:36:30.241Z,15.41
2018-08-11T05:37:30.225Z,15.44
2018-08-11T05:38:30.223Z,15.43
2018-08-11T05:39:30.211Z,15.54
2018-08-11T05:40:30.199Z,15.54
2018-08-11T05:41:30.194Z,15.56
2018-08-11T05:42:30.182Z,15.53
2018-08-11T05:43:30.168Z,15.57
2018-08-11T05:44:30.160Z,15.57
2018-08-11T05:45:30.148Z,15.53
2018-08-11T05:46:30.144Z,15.62
2018-08-11T05:47:30.135Z,15.64
2018-08-11T05:48:30.123Z,15.72
2018-08-11T05:49:30.114Z,15.69
2018-08-11T05:50:30.105Z,15.59
2018-08-11T05:51:30.104Z,15.67
2018-08-11T05:52:30.085Z,15.76
2018-08-11T05:53:30.075Z,15.69
2018-08-11T05:54:30.064Z,15.87
2018-08-11T05:55:30.055Z,15.80
2018-08-11T05:56:30.051Z,15.72
2018-08-11T05:57:30.035Z,15.84
2018-08-11T05:58:30.025Z,15.84
2018-08-11T05:59:30.024Z,15.94
2018-08-11T06:00:30.006Z,15.87
2018-08-11T06:01:29.999Z,15.89
2018-08-11T06:02:29.992Z,15.80
2018-08-11T06:03:29.983Z,15.71
2018-08-11T06:04:29.969Z,15.80
2018-08-11T06:05:29.959Z,15.89
2018-08-11T06:06:29.950Z,15.80
2018-08-11T06:07:29.944Z,15.80
2018-08-11T06:08:29.936Z,15.74
2018-08-11T06:09:29.926Z,15.76
2018-08-11T06:10:29.914Z,15.72
2018-08-11T06:11:29.904Z,15.72
2018-08-11T06:12:29.892Z,15.76
2018-08-11T06:13:29.886Z,15.69
2018-08-11T06:14:29.874Z,15.62
2018-08-11T06:15:29.871Z,15.64
2018-08-11T06:16:29.858Z,15.65
2018-08-11T06:17:29.847Z,15.65
2018-08-11T06:18:29.838Z,15.74
2018-08-11T06:19:29.831Z,15.67
2018-08-11T06:20:29.820Z,15.74
2018-08-11T06:21:29.812Z,15.76
2018-08-11T06:22:29.802Z,15.72
2018-08-11T06:23:29.789Z,15.75
2018-08-11T06:24:29.785Z,15.78
2018-08-11T06:25:29.782Z,15.80
2018-08-11T06:26:29.766Z,15.72
2018-08-11T06:27:29.755Z,15.86
2018-08-11T06:28:29.739Z,15.84
2018-08-11T06:29:29.728Z,15.83
2018-08-11T06:30:29.731Z,15.83
2018-08-11T06:31:29.738Z,15.89
2018-08-11T06:32:29.704Z,16.00
2018-08-11T06:33:29.692Z,16.02
2018-08-11T06:34:29.684Z,16.02
2018-08-11T06:35:29.676Z,15.97
2018-08-11T06:36:29.668Z,16.04
2018-08-11T06:37:29.660Z,16.15
2018-08-11T06:38:29.652Z,16.08
2018-08-11T06:39:29.639Z,16.09
2018-08-11T06:40:29.641Z,16.12
2018-08-11T06:41:29.622Z,16.09
2018-08-11T06:42:29.609Z,16.11
2018-08-11T06:43:29.603Z,16.11
2018-08-11T06:44:29.595Z,16.09
2018-08-11T06:45:29.581Z,16.08
2018-08-11T06:46:29.569Z,16.09
2018-08-11T06:47:29.567Z,16.07
2018-08-11T06:48:29.555Z,16.08
2018-08-11T06:49:29.544Z,16.04
2018-08-11T06:50:29.538Z,16.21
2018-08-11T06:51:29.530Z,16.30
2018-08-11T06:52:29.519Z,16.30
2018-08-11T06:53:29.504Z,16.34
2018-08-11T06:54:29.494Z,16.38
2018-08-11T06:55:29.496Z,16.46
2018-08-11T06:56:29.479Z,16.63
2018-08-11T06:57:29.475Z,16.73
2018-08-11T06:58:29.468Z,16.75
2018-08-11T06:59:29.449Z,16.82
2018-08-11T07:00:29.446Z,16.93
2018-08-11T07:01:29.433Z,16.98
2018-08-11T07:02:29.425Z,16.98
2018-08-11T07:03:29.408Z,17.08
2018-08-11T07:04:29.404Z,17.07
2018-08-11T07:05:29.394Z,17.07
2018-08-11T07:06:29.421Z,17.08
2018-08-11T07:07:29.374Z,17.12
2018-08-11T07:08:29.365Z,17.18
2018-08-11T07:09:29.358Z,17.15
2018-08-11T07:10:29.348Z,17.07
2018-08-11T07:11:29.340Z,17.04
2018-08-11T07:12:29.331Z,16.97
2018-08-11T07:13:29.321Z,17.07
2018-08-11T07:14:29.314Z,17.08
2018-08-11T07:15:29.310Z,17.06
2018-08-11T07:16:29.285Z,17.16
2018-08-11T07:17:29.285Z,17.08
2018-08-11T07:18:29.275Z,17.16
2018-08-11T07:19:29.272Z,17.19
2018-08-11T07:20:29.255Z,17.16
2018-08-11T07:21:29.310Z,17.19
2018-08-11T07:22:29.242Z,17.26
2018-08-11T07:23:29.229Z,17.37
2018-08-11T07:24:29.224Z,17.38
2018-08-11T07:25:29.215Z,17.41
2018-08-11T07:26:29.233Z,17.52
2018-08-11T07:27:29.192Z,17.56
2018-08-11T07:28:29.199Z,17.71
2018-08-11T07:29:29.179Z,17.81
2018-08-11T07:30:29.169Z,17.92
2018-08-11T07:31:29.212Z,18.08
2018-08-11T07:32:29.155Z,18.11
2018-08-11T07:33:29.144Z,18.29
2018-08-11T07:34:29.131Z,18.35
2018-08-11T07:35:29.128Z,18.41
2018-08-11T07:36:29.162Z,18.54
2018-08-11T07:37:29.107Z,18.55
2018-08-11T07:38:29.100Z,18.70
2018-08-11T07:39:29.094Z,18.65
2018-08-11T07:40:29.084Z,18.67
2018-08-11T07:41:29.078Z,18.69
2018-08-11T07:42:29.066Z,18.73
2018-08-11T07:43:29.121Z,18.85
2018-08-11T07:44:29.046Z,18.84
2018-08-11T07:45:29.038Z,18.90
2018-08-11T07:46:29.037Z,18.91
2018-08-11T07:47:29.029Z,18.82
2018-08-11T07:48:29.021Z,18.88
2018-08-11T07:49:29.012Z,18.75
2018-08-11T07:50:29.106Z,18.67
2018-08-11T07:51:28.989Z,18.62
2018-08-11T07:52:28.986Z,18.51
2018-08-11T07:53:28.976Z,18.55
2018-08-11T07:54:28.963Z,18.54
2018-08-11T07:55:28.958Z,18.62
2018-08-11T07:56:28.948Z,18.50
2018-08-11T07:57:28.943Z,18.54
2018-08-11T07:58:28.936Z,18.48
2018-08-11T07:59:28.927Z,18.54
2018-08-11T08:00:28.919Z,18.63
2018-08-11T08:01:29.021Z,18.50
2018-08-11T08:02:28.900Z,18.44
2018-08-11T08:03:28.892Z,18.48
2018-08-11T08:04:28.888Z,18.51
2018-08-11T08:05:28.877Z,18.41
2018-08-11T08:06:28.863Z,18.25
2018-08-11T08:07:28.861Z,18.26
2018-08-11T08:08:28.850Z,18.35
2018-08-11T08:09:28.848Z,18.33
2018-08-11T08:10:28.841Z,18.37
2018-08-11T08:11:28.825Z,18.44
2018-08-11T08:12:28.817Z,18.50
2018-08-11T08:13:28.809Z,18.54
2018-08-11T08:14:28.804Z,18.51
2018-08-11T08:15:28.787Z,18.58
2018-08-11T08:16:28.787Z,18.55
2018-08-11T08:17:28.775Z,18.55
2018-08-11T08:18:28.767Z,18.65
2018-08-11T08:19:28.759Z,18.58
2018-08-11T08:20:28.751Z,18.69
2018-08-11T08:21:28.741Z,18.69
2018-08-11T08:22:28.746Z,18.78
2018-08-11T08:23:28.730Z,18.84
2018-08-11T08:24:28.716Z,18.82
2018-08-11T08:25:28.712Z,18.88
2018-08-11T08:26:28.770Z,18.84
2018-08-11T08:27:28.693Z,18.92
2018-08-11T08:28:28.690Z,18.85
2018-08-11T08:29:28.688Z,18.91
2018-08-11T08:30:28.672Z,19.00
2018-08-11T08:31:28.661Z,19.02
2018-08-11T08:32:28.653Z,18.94
2018-08-11T08:33:28.639Z,18.94
2018-08-11T08:34:28.638Z,18.90
2018-08-11T08:35:28.626Z,18.90
2018-08-11T08:36:28.636Z,18.98
2018-08-11T08:37:28.614Z,19.02
2018-08-11T08:38:28.600Z,19.00
2018-08-11T08:39:28.597Z,19.00
2018-08-11T08:40:28.595Z,18.99
2018-08-11T08:41:28.581Z,19.11
2018-08-11T08:42:28.573Z,19.21
2018-08-11T08:43:28.564Z,19.19
2018-08-11T08:44:28.556Z,19.28
2018-08-11T08:45:28.550Z,19.25
2018-08-11T08:46:28.550Z,19.26
2018-08-11T08:47:28.579Z,19.19
2018-08-11T08:48:28.522Z,19.08
2018-08-11T08:49:28.513Z,19.18
2018-08-11T08:50:28.507Z,19.18
2018-08-11T08:51:28.503Z,19.19
2018-08-11T08:52:28.493Z,19.23
2018-08-11T08:53:28.483Z,19.14
2018-08-11T08:54:28.473Z,19.00
2018-08-11T08:55:28.468Z,18.94
2018-08-11T08:56:28.464Z,18.98
2018-08-11T08:57:28.452Z,18.98
2018-08-11T08:58:28.444Z,18.94
2018-08-11T08:59:28.433Z,18.95
2018-08-11T09:00:28.432Z,18.90
2018-08-11T09:01:28.423Z,18.92
2018-08-11T09:02:28.412Z,18.92
2018-08-11T09:03:28.412Z,18.92
2018-08-11T09:04:28.400Z,18.99
2018-08-11T09:05:28.389Z,18.94
2018-08-11T09:06:28.382Z,18.90
2018-08-11T09:07:28.372Z,18.90
2018-08-11T09:08:28.360Z,18.95
2018-08-11T09:09:28.356Z,18.90
2018-08-11T09:10:28.354Z,18.94
2018-08-11T09:11:28.343Z,18.98
2018-08-11T09:12:28.335Z,19.02
2018-08-11T09:13:28.325Z,19.08
2018-08-11T09:14:28.320Z,19.04
2018-08-11T09:15:28.311Z,19.13
2018-08-11T09:16:28.301Z,19.16
2018-08-11T09:17:28.294Z,19.16
2018-08-11T09:18:28.283Z,19.18
2018-08-11T09:19:28.301Z,19.18
2018-08-11T09:20:28.272Z,19.25
2018-08-11T09:21:28.264Z,19.28
2018-08-11T09:22:28.254Z,19.28
2018-08-11T09:23:28.246Z,19.37
2018-08-11T09:24:28.238Z,19.39
2018-08-11T09:25:28.235Z,19.46
2018-08-11T09:26:28.218Z,19.37
2018-08-11T09:27:28.211Z,19.46
2018-08-11T09:28:28.203Z,19.46
2018-08-11T09:29:28.201Z,19.50
2018-08-11T09:30:28.190Z,19.46
2018-08-11T09:31:28.183Z,19.54
2018-08-11T09:32:28.176Z,19.69
2018-08-11T09:33:28.163Z,19.77
2018-08-11T09:34:28.160Z,19.76
2018-08-11T09:35:28.151Z,19.91
2018-08-11T09:36:28.143Z,19.83
2018-08-11T09:37:28.129Z,19.91
2018-08-11T09:38:28.174Z,19.92
2018-08-11T09:39:28.123Z,19.86
2018-08-11T09:40:28.111Z,19.94
2018-08-11T09:41:28.108Z,20.01
2018-08-11T09:42:28.105Z,19.96
2018-08-11T09:43:28.089Z,19.98
2018-08-11T09:44:28.084Z,20.01
2018-08-11T09:45:28.080Z,20.13
2018-08-11T09:46:28.070Z,20.01
2018-08-11T09:47:28.053Z,20.06
2018-08-11T09:48:28.054Z,19.92
2018-08-11T09:49:28.042Z,19.99
2018-08-11T09:50:28.039Z,19.96
2018-08-11T09:51:28.027Z,19.92
2018-08-11T09:52:28.017Z,20.06
2018-08-11T09:53:28.012Z,19.99
2018-08-11T09:54:28.010Z,20.13
2018-08-11T09:55:27.999Z,20.17
2018-08-11T09:56:27.991Z,20.17
2018-08-11T09:57:27.985Z,20.13
2018-08-11T09:58:27.977Z,20.17
2018-08-11T09:59:27.970Z,20.18
2018-08-11T10:00:27.959Z,20.31
2018-08-11T10:01:27.947Z,20.24
2018-08-11T10:02:27.948Z,20.31
2018-08-11T10:03:27.940Z,20.23
2018-08-11T10:04:27.934Z,20.28
2018-08-11T10:05:27.923Z,20.18
2018-08-11T10:06:27.916Z,20.21
2018-08-11T10:07:27.903Z,20.24
2018-08-11T10:08:27.908Z,20.17
2018-08-11T10:09:27.895Z,20.32
2018-08-11T10:10:27.928Z,20.31
2018-08-11T10:11:27.886Z,20.29
2018-08-11T10:12:27.871Z,20.36
2018-08-11T10:13:27.865Z,20.51
2018-08-11T10:14:27.862Z,20.55
2018-08-11T10:15:27.854Z,20.64
2018-08-11T10:16:27.845Z,20.74
2018-08-11T10:17:27.841Z,20.73
2018-08-11T10:18:27.843Z,20.76
2018-08-11T10:19:27.824Z,20.73
2018-08-11T10:20:27.812Z,20.70
2018-08-11T10:21:27.832Z,20.58
2018-08-11T10:22:27.798Z,20.52
2018-08-11T10:23:27.799Z,20.57
2018-08-11T10:24:27.785Z,20.57
2018-08-11T10:25:27.777Z,20.67
2018-08-11T10:26:27.771Z,20.67
2018-08-11T10:27:27.769Z,20.70
2018-08-11T10:28:27.762Z,20.73
2018-08-11T10:29:27.751Z,20.72
2018-08-11T10:30:27.743Z,20.88
2018-08-11T10:31:27.738Z,20.92
2018-08-11T10:32:27.727Z,20.99
2018-08-11T10:33:27.723Z,21.01
2018-08-11T10:34:27.721Z,21.01
2018-08-11T10:35:27.718Z,21.01
2018-08-11T10:36:27.696Z,21.01
2018-08-11T10:37:27.698Z,21.01
2018-08-11T10:38:27.684Z,21.04
2018-08-11T10:39:27.680Z,21.13
2018-08-11T10:40:27.673Z,21.13
2018-08-11T10:41:27.661Z,21.09
2018-08-11T10:42:27.657Z,21.13
2018-08-11T10:43:27.653Z,21.10
2018-08-11T10:44:27.643Z,21.16
2018-08-11T10:45:27.639Z,21.22
2018-08-11T10:46:27.633Z,21.29
2018-08-11T10:47:27.624Z,21.49
2018-08-11T10:48:27.614Z,21.49
2018-08-11T10:49:27.608Z,21.52
2018-08-11T10:50:27.606Z,21.61
2018-08-11T10:51:27.602Z,21.77
2018-08-11T10:52:27.590Z,21.84
2018-08-11T10:53:27.582Z,21.90
2018-08-11T10:54:27.577Z,21.84
2018-08-11T10:55:27.567Z,21.88
2018-08-11T10:56:27.562Z,21.79
2018-08-11T10:57:27.549Z,21.67
2018-08-11T10:58:27.545Z,21.67
2018-08-11T10:59:27.539Z,21.88
2018-08-11T11:00:27.533Z,21.98
2018-08-11T11:01:27.535Z,21.82
2018-08-11T11:02:27.529Z,21.80
2018-08-11T11:03:27.508Z,21.74
2018-08-11T11:04:27.508Z,21.43
2018-08-11T11:05:27.503Z,21.42
2018-08-11T11:06:27.492Z,21.32
2018-08-11T11:07:27.490Z,21.27
2018-08-11T11:08:27.555Z,21.12
2018-08-11T11:09:27.474Z,20.95
2018-08-11T11:10:27.470Z,20.85
2018-08-11T11:11:27.464Z,20.87
2018-08-11T11:12:27.455Z,20.69
2018-08-11T11:13:27.447Z,20.70
2018-08-11T11:14:27.445Z,20.72
2018-08-11T11:15:27.435Z,20.73
2018-08-11T11:16:27.427Z,20.72
2018-08-11T11:17:27.419Z,20.69
2018-08-11T11:18:27.409Z,20.69
2018-08-11T11:19:27.408Z,20.73
2018-08-11T11:20:27.398Z,20.70
2018-08-11T11:21:27.394Z,20.73
2018-08-11T11:22:27.386Z,20.87
2018-08-11T11:23:27.379Z,20.85
2018-08-11T11:24:27.376Z,20.92
2018-08-11T11:25:27.364Z,20.82
2018-08-11T11:26:27.358Z,20.87
2018-08-11T11:27:27.349Z,20.88
2018-08-11T11:28:27.337Z,20.91
2018-08-11T11:29:27.333Z,20.85
2018-08-11T11:30:27.325Z,20.95
2018-08-11T11:31:27.323Z,20.85
2018-08-11T11:32:27.315Z,20.69
2018-08-11T11:33:27.305Z,20.85
2018-08-11T11:34:27.303Z,20.91
2018-08-11T11:35:27.296Z,20.99
2018-08-11T11:36:27.290Z,21.04
2018-08-11T11:37:27.285Z,21.03
2018-08-11T11:38:27.272Z,21.07
2018-08-11T11:39:27.265Z,21.13
2018-08-11T11:40:27.269Z,21.19
2018-08-11T11:41:27.253Z,21.32
2018-08-11T11:42:27.243Z,21.52
2018-08-11T11:43:27.281Z,21.67
2018-08-11T11:44:27.231Z,21.82
2018-08-11T11:45:27.218Z,21.94
2018-08-11T11:46:27.218Z,21.92
2018-08-11T11:47:27.210Z,21.88
2018-08-11T11:48:27.204Z,21.82
2018-08-11T11:49:27.200Z,21.67
2018-08-11T11:50:27.189Z,21.74
2018-08-11T11:51:27.181Z,21.67
2018-08-11T11:52:27.172Z,21.53
2018-08-11T11:53:27.166Z,21.53
2018-08-11T11:54:27.160Z,21.54
2018-08-11T11:55:27.155Z,21.64
2018-08-11T11:56:27.149Z,21.68
2018-08-11T11:57:27.137Z,21.82
2018-08-11T11:58:27.133Z,21.92
2018-08-11T11:59:27.124Z,22.10
2018-08-11T12:00:27.116Z,22.21
2018-08-11T12:01:27.114Z,22.31
2018-08-11T12:02:27.110Z,22.27
2018-08-11T12:03:27.100Z,22.22
2018-08-11T12:04:27.098Z,22.24
2018-08-11T12:05:27.088Z,22.28
2018-08-11T12:06:27.093Z,22.49
2018-08-11T12:07:27.075Z,22.39
2018-08-11T12:08:27.067Z,22.45
2018-08-11T12:09:27.061Z,22.49
2018-08-11T12:10:27.059Z,22.47
2018-08-11T12:11:27.048Z,22.37
2018-08-11T12:12:27.044Z,22.46
2018-08-11T12:13:27.037Z,22.47
2018-08-11T12:14:27.030Z,22.40
2018-08-11T12:15:27.019Z,22.42
2018-08-11T12:16:27.017Z,22.47
2018-08-11T12:17:27.011Z,22.46
2018-08-11T12:18:27.003Z,22.45
2018-08-11T12:19:27.004Z,22.51
2018-08-11T12:20:26.993Z,22.65
2018-08-11T12:21:26.985Z,22.65
2018-08-11T12:22:26.977Z,22.70
2018-08-11T12:23:26.971Z,22.72
2018-08-11T12:24:26.972Z,22.70
2018-08-11T12:25:26.960Z,22.68
2018-08-11T12:26:26.960Z,22.76
2018-08-11T12:27:26.948Z,22.80
2018-08-11T12:28:26.940Z,22.88
2018-08-11T12:29:26.935Z,22.92
2018-08-11T12:30:26.927Z,22.95
2018-08-11T12:31:26.926Z,23.12
2018-08-11T12:32:26.913Z,23.22
2018-08-11T12:33:26.903Z,23.13
2018-08-11T12:34:26.900Z,23.12
2018-08-11T12:35:26.896Z,23.12
2018-08-11T12:36:26.892Z,23.07
2018-08-11T12:37:26.885Z,23.09
2018-08-11T12:38:26.880Z,22.94
2018-08-11T12:39:26.877Z,23.02
2018-08-11T12:40:26.864Z,23.13
2018-08-11T12:41:26.867Z,23.07
2018-08-11T12:42:26.858Z,23.04
2018-08-11T12:43:26.848Z,23.05
2018-08-11T12:44:26.840Z,23.00
2018-08-11T12:45:26.853Z,22.94
2018-08-11T12:46:26.828Z,22.94
2018-08-11T12:47:26.822Z,23.04
2018-08-11T12:48:26.820Z,23.10
2018-08-11T12:49:26.814Z,23.10
2018-08-11T12:50:26.812Z,23.19
2018-08-11T12:51:26.810Z,23.04
2018-08-11T12:52:26.804Z,23.15